^^

STATION HISTORICAL DATA

Daily Summary for December 15, 2017 Units:  English    Metric   Both
« Previous Day
Next Day »
Daily Weekly Monthly Yearly Custom
  Current: High: Low: Average:
Temperature: 36.5 °F 36.5 °F 23.2 °F 30.9 °F
Dew Point: 25.1 °F 26.7 °F 17.9 °F 23 °F
Humidity: 63 % 81 % 62 % 73 %
Wind Speed: 13.0 mph 21.0 mph 0.0 mph 8.6 mph
Wind Gust: 13.0 mph 21.0 mph - -
Wind:SSW - - WSW
Pressure: 29.88 in 30.06 in 29.88 in -
Precipitation: 0.00 in      
Historical Graphs
 
 
Tabular Data for December 15, 2017
Time Temperature Dew Point Pressure Wind Wind Speed Wind Gust Humidity Rainfall Rate (Hourly) solar Conditions
00:03 24.9 °F 18.4 °F 30.06 in WSW 4.0 mph 4.0 mph 76 % 0.00 in 0.0 W/m2 OVC
00:08 24.9 °F 18.4 °F 30.06 in WSW 8.0 mph 8.0 mph 76 % 0.00 in 0.0 W/m2 OVC
00:13 24.8 °F 18.3 °F 30.06 in Calm     76 % 0.00 in 0.0 W/m2 OVC
00:18 24.8 °F 18.3 °F 30.06 in WSW 9.0 mph 9.0 mph 76 % 0.00 in 0.0 W/m2 OVC
00:23 24.9 °F 18.4 °F 30.05 in WSW 5.8 mph 5.8 mph 76 % 0.00 in 0.0 W/m2 CLR
00:28 24.9 °F 18.7 °F 30.05 in WSW 8.1 mph 8.1 mph 77 % 0.00 in 0.0 W/m2 CLR
00:33 25.0 °F 18.8 °F 30.05 in WSW 5.0 mph 5.0 mph 77 % 0.00 in 0.0 W/m2 CLR
00:38 25.0 °F 18.8 °F 30.05 in Calm     77 % 0.00 in 0.0 W/m2 CLR
00:43 25.1 °F 18.9 °F 30.05 in SW 5.0 mph 5.0 mph 77 % 0.00 in 0.0 W/m2 CLR
00:48 25.2 °F 19.0 °F 30.04 in WSW 6.9 mph 6.9 mph 77 % 0.00 in 0.0 W/m2 CLR
00:53 25.2 °F 19.0 °F 30.04 in WSW 6.9 mph 6.9 mph 77 % 0.00 in 0.0 W/m2 CLR
00:58 25.3 °F 18.8 °F 30.04 in WSW 8.1 mph 8.1 mph 76 % 0.00 in 0.0 W/m2 CLR
01:03 25.4 °F 18.9 °F 30.03 in WSW 6.9 mph 6.9 mph 76 % 0.00 in 0.0 W/m2 CLR
01:11 25.4 °F 18.9 °F 30.03 in WSW 10.0 mph 10.0 mph 76 % 0.00 in 0.0 W/m2 CLR
01:21 25.5 °F 19.0 °F 30.03 in WSW 5.8 mph 5.8 mph 76 % 0.00 in 0.0 W/m2 CLR
01:26 25.6 °F 19.1 °F 30.03 in WSW 9.0 mph 9.0 mph 76 % 0.00 in 0.0 W/m2 CLR
01:31 25.6 °F 19.1 °F 30.03 in WSW 6.0 mph 6.0 mph 76 % 0.00 in 0.0 W/m2 CLR
01:37 25.7 °F 19.2 °F 30.03 in WSW 5.0 mph 5.0 mph 76 % 0.00 in 0.0 W/m2 CLR
01:42 25.7 °F 19.2 °F 30.03 in WSW 10.4 mph 10.4 mph 76 % 0.00 in 0.0 W/m2 CLR
01:47 25.7 °F 19.2 °F 30.03 in WSW 9.0 mph 9.0 mph 76 % 0.00 in 0.0 W/m2 CLR
01:52 25.8 °F 19.3 °F 30.03 in WSW 8.1 mph 8.1 mph 76 % 0.00 in 0.0 W/m2 CLR
01:57 25.8 °F 19.3 °F 30.03 in WSW 13.8 mph 13.8 mph 76 % 0.00 in 0.0 W/m2 CLR
02:02 25.9 °F 19.4 °F 30.03 in WSW 8.1 mph 8.1 mph 76 % 0.00 in 0.0 W/m2 CLR
02:07 26.0 °F 19.8 °F 30.03 in WSW 19.6 mph 19.6 mph 77 % 0.00 in 0.0 W/m2 CLR
02:17 26.1 °F 19.9 °F 30.03 in West 4.0 mph 4.0 mph 77 % 0.00 in 0.0 W/m2 CLR
02:22 26.1 °F 19.9 °F 30.03 in WSW 9.2 mph 9.2 mph 77 % 0.00 in 0.0 W/m2 CLR
02:27 26.1 °F 19.9 °F 30.03 in West 6.9 mph 6.9 mph 77 % 0.00 in 0.0 W/m2 CLR
02:32 26.2 °F 20.0 °F 30.03 in West 10.4 mph 10.4 mph 77 % 0.00 in 0.0 W/m2 CLR
02:37 26.2 °F 20.3 °F 30.03 in West 15.0 mph 15.0 mph 78 % 0.00 in 0.0 W/m2 CLR
02:42 26.3 °F 20.4 °F 30.02 in West 10.0 mph 10.0 mph 78 % 0.00 in 0.0 W/m2 CLR
02:47 26.3 °F 20.4 °F 30.02 in West 12.7 mph 12.7 mph 78 % 0.00 in 0.0 W/m2 CLR
02:52 26.3 °F 20.4 °F 30.02 in West 15.0 mph 15.0 mph 78 % 0.00 in 0.0 W/m2 CLR
02:57 26.3 °F 20.4 °F 30.02 in WSW 8.1 mph 8.1 mph 78 % 0.00 in 0.0 W/m2 CLR
03:02 26.3 °F 20.4 °F 30.02 in WSW 9.0 mph 9.0 mph 78 % 0.00 in 0.0 W/m2 CLR
03:07 26.4 °F 20.5 °F 30.01 in WSW 10.4 mph 10.4 mph 78 % 0.00 in 0.0 W/m2 CLR
03:17 26.5 °F 20.6 °F 30.01 in West 12.7 mph 12.7 mph 78 % 0.00 in 0.0 W/m2 CLR
03:23 26.5 °F 20.6 °F 30.01 in WSW 8.1 mph 8.1 mph 78 % 0.00 in 0.0 W/m2 CLR
03:28 26.6 °F 20.7 °F 30.01 in WSW 9.0 mph 9.0 mph 78 % 0.00 in 0.0 W/m2 CLR
03:33 26.7 °F 20.8 °F 30.01 in West 10.0 mph 10.0 mph 78 % 0.00 in 0.0 W/m2 CLR
03:38 26.7 °F 20.8 °F 30.01 in West 15.0 mph 15.0 mph 78 % 0.00 in 0.0 W/m2 CLR
03:43 26.8 °F 20.9 °F 30.01 in West 18.0 mph 18.0 mph 78 % 0.00 in 0.0 W/m2 OVC
03:48 26.9 °F 21.0 °F 30.01 in West 10.4 mph 10.4 mph 78 % 0.00 in 0.0 W/m2 OVC
03:53 26.9 °F 21.0 °F 30.00 in West 8.1 mph 8.1 mph 78 % 0.00 in 0.0 W/m2 OVC
03:58 26.9 °F 21.0 °F 30.01 in West 11.5 mph 11.5 mph 78 % 0.00 in 0.0 W/m2 OVC
04:03 26.9 °F 21.0 °F 30.01 in WNW 15.0 mph 15.0 mph 78 % 0.00 in 0.0 W/m2 OVC
04:08 26.9 °F 21.0 °F 30.01 in WNW 10.4 mph 10.4 mph 78 % 0.00 in 0.0 W/m2 OVC
04:18 27.0 °F 21.1 °F 30.01 in WNW 6.9 mph 6.9 mph 78 % 0.00 in 0.0 W/m2 OVC
04:23 27.0 °F 21.1 °F 30.00 in West 9.2 mph 9.2 mph 78 % 0.00 in 0.0 W/m2 OVC
04:28 27.1 °F 20.8 °F 30.00 in West 6.9 mph 6.9 mph 77 % 0.00 in 0.0 W/m2 OVC
04:33 27.1 °F 20.5 °F 30.00 in West 6.0 mph 6.0 mph 76 % 0.00 in 0.0 W/m2 OVC
04:38 27.2 °F 20.6 °F 30.00 in West 9.2 mph 9.2 mph 76 % 0.00 in 0.0 W/m2 OVC
04:44 27.2 °F 20.9 °F 30.00 in West 11.5 mph 11.5 mph 77 % 0.00 in 0.0 W/m2 OVC
04:49 27.2 °F 20.9 °F 30.00 in West 11.5 mph 11.5 mph 77 % 0.00 in 0.0 W/m2 OVC
04:54 27.2 °F 20.6 °F 30.00 in WNW 10.4 mph 10.4 mph 76 % 0.00 in 0.0 W/m2 OVC
04:59 26.9 °F 20.3 °F 30.00 in West 10.0 mph 10.0 mph 76 % 0.00 in 0.0 W/m2 OVC
05:04 26.5 °F 20.0 °F 30.00 in WNW 13.0 mph 13.0 mph 76 % 0.00 in 0.0 W/m2 OVC
05:09 26.1 °F 19.6 °F 30.00 in WNW 9.2 mph 9.2 mph 76 % 0.00 in 0.0 W/m2 OVC
05:14 25.7 °F 19.2 °F 30.00 in West 8.1 mph 8.1 mph 76 % 0.00 in 0.0 W/m2 OVC
05:19 25.3 °F 18.8 °F 30.01 in WNW 3.5 mph 3.5 mph 76 % 0.00 in 0.0 W/m2 OVC
05:24 25.2 °F 18.7 °F 30.01 in West 11.5 mph 11.5 mph 76 % 0.00 in 0.0 W/m2 OVC
05:29 25.2 °F 18.7 °F 30.01 in West 4.0 mph 4.0 mph 76 % 0.00 in 0.0 W/m2 OVC
05:34 25.1 °F 18.6 °F 30.01 in West 6.9 mph 6.9 mph 76 % 0.00 in 0.0 W/m2 OVC
05:39 25.1 °F 19.2 °F 30.01 in WNW 17.3 mph 17.3 mph 78 % 0.00 in 0.0 W/m2 OVC
05:44 25.1 °F 19.2 °F 30.01 in West 10.4 mph 10.4 mph 78 % 0.00 in 0.0 W/m2 OVC
05:49 25.1 °F 18.9 °F 30.01 in West 11.5 mph 11.5 mph 77 % 0.00 in 0.0 W/m2 OVC
05:54 25.1 °F 18.9 °F 30.01 in West 10.4 mph 10.4 mph 77 % 0.00 in 0.0 W/m2 OVC
05:59 25.0 °F 19.1 °F 30.01 in West 10.4 mph 10.4 mph 78 % 0.00 in 0.0 W/m2 OVC
06:04 24.8 °F 18.9 °F 30.01 in WNW 8.1 mph 8.1 mph 78 % 0.00 in 0.0 W/m2 OVC
06:09 24.7 °F 18.8 °F 30.01 in WNW 8.0 mph 8.0 mph 78 % 0.00 in 0.0 W/m2 OVC
06:15 24.6 °F 19.0 °F 30.01 in West 6.0 mph 6.0 mph 79 % 0.00 in 0.0 W/m2 OVC
06:20 24.5 °F 18.6 °F 30.01 in West 8.1 mph 8.1 mph 78 % 0.00 in 0.0 W/m2 OVC
06:26 24.5 °F 18.6 °F 30.01 in West 6.9 mph 6.9 mph 78 % 0.00 in 0.0 W/m2 OVC
06:31 24.4 °F 18.5 °F 30.01 in West 8.1 mph 8.1 mph 78 % 0.00 in 0.0 W/m2 OVC
06:36 24.3 °F 18.4 °F 30.01 in West 7.0 mph 7.0 mph 78 % 0.00 in 0.0 W/m2 OVC
06:41 24.0 °F 18.1 °F 30.01 in West 8.1 mph 8.1 mph 78 % 0.00 in 0.0 W/m2 OVC
06:46 23.8 °F 18.2 °F 30.01 in West 11.5 mph 11.5 mph 79 % 0.00 in 0.0 W/m2 OVC
06:51 23.7 °F 18.1 °F 30.01 in West 10.0 mph 10.0 mph 79 % 0.00 in 0.0 W/m2 OVC
06:56 23.6 °F 18.0 °F 30.01 in West 11.5 mph 11.5 mph 79 % 0.00 in 0.0 W/m2 OVC
07:01 23.5 °F 17.9 °F 30.02 in West 12.7 mph 12.7 mph 79 % 0.00 in 0.0 W/m2 BKN
07:06 23.5 °F 18.2 °F 30.02 in West 9.2 mph 9.2 mph 80 % 0.00 in 0.0 W/m2 BKN
07:11 23.5 °F 18.2 °F 30.02 in West 8.1 mph 8.1 mph 80 % 0.00 in 0.0 W/m2 BKN
07:16 23.4 °F 18.1 °F 30.02 in West 5.8 mph 5.8 mph 80 % 0.00 in 0.0 W/m2 BKN
07:21 23.2 °F 17.9 °F 30.02 in West 4.6 mph 4.6 mph 80 % 0.00 in 5.0 W/m2 BKN
07:26 23.2 °F 17.9 °F 30.02 in West 3.0 mph 3.0 mph 80 % 0.00 in 7.0 W/m2 BKN
07:32 23.3 °F 18.3 °F 30.02 in WNW 9.2 mph 9.2 mph 81 % 0.00 in 9.0 W/m2 BKN
07:37 23.6 °F 18.6 °F 30.02 in WNW 6.9 mph 6.9 mph 81 % 0.00 in 14.0 W/m2 BKN
07:41 24.0 °F 19.0 °F 30.01 in West 3.5 mph 3.5 mph 81 % 0.00 in 21.0 W/m2 BKN
07:47 24.4 °F 19.1 °F 30.01 in West 3.5 mph 3.5 mph 80 % 0.00 in 25.0 W/m2 BKN
07:52 24.7 °F 19.1 °F 30.02 in Calm     79 % 0.00 in 28.0 W/m2 BKN
07:57 25.0 °F 19.1 °F 30.02 in WNW 5.8 mph 5.8 mph 78 % 0.00 in 35.0 W/m2 BKN
08:02 25.3 °F 19.4 °F 30.02 in West 9.2 mph 9.2 mph 78 % 0.00 in 39.0 W/m2 BKN
08:07 25.5 °F 19.6 °F 30.02 in WNW 6.9 mph 6.9 mph 78 % 0.00 in 39.0 W/m2 BKN
08:12 25.8 °F 19.6 °F 30.02 in West 3.5 mph 3.5 mph 77 % 0.00 in 39.0 W/m2 BKN
08:17 26.0 °F 19.8 °F 30.02 in West 10.4 mph 10.4 mph 77 % 0.00 in 39.0 W/m2 BKN
08:22 26.3 °F 19.8 °F 30.02 in West 9.2 mph 9.2 mph 76 % 0.00 in 39.0 W/m2 BKN
08:27 26.5 °F 20.0 °F 30.02 in WNW 6.9 mph 6.9 mph 76 % 0.00 in 40.0 W/m2 BKN
08:32 26.7 °F 19.8 °F 30.02 in West 11.5 mph 11.5 mph 75 % 0.00 in 42.0 W/m2 BKN
08:37 26.8 °F 20.2 °F 30.02 in West 10.0 mph 10.0 mph 76 % 0.00 in 37.0 W/m2 BKN
08:42 26.9 °F 20.0 °F 30.02 in West 11.5 mph 11.5 mph 75 % 0.00 in 49.0 W/m2 BKN
08:47 27.0 °F 20.1 °F 30.02 in West 10.4 mph 10.4 mph 75 % 0.00 in 53.0 W/m2 BKN
08:53 27.1 °F 20.2 °F 30.02 in West 11.5 mph 11.5 mph 75 % 0.00 in 56.0 W/m2 BKN
08:58 27.2 °F 20.3 °F 30.02 in West 10.4 mph 10.4 mph 75 % 0.00 in 72.0 W/m2 BKN
09:03 27.4 °F 20.8 °F 30.01 in West 11.0 mph 11.0 mph 76 % 0.00 in 107.0 W/m2 OVC
09:08 27.5 °F 20.9 °F 30.01 in West 9.2 mph 9.2 mph 76 % 0.00 in 116.0 W/m2 OVC
09:14 27.8 °F 20.9 °F 30.01 in West 12.7 mph 12.7 mph 75 % 0.00 in 104.0 W/m2 OVC
09:19 28.0 °F 21.1 °F 30.02 in West 11.5 mph 11.5 mph 75 % 0.00 in 120.0 W/m2 OVC
09:22 28.1 °F 21.2 °F 30.01 in WSW 8.1 mph 8.1 mph 75 % 0.00 in 144.0 W/m2 OVC
09:28 28.1 °F 20.9 °F 30.02 in WSW 11.5 mph 11.5 mph 74 % 0.00 in 102.0 W/m2 OVC
09:33 28.2 °F 21.3 °F 30.02 in WSW 6.9 mph 6.9 mph 75 % 0.00 in 290.0 W/m2 OVC
09:38 28.8 °F 21.9 °F 30.02 in WSW 10.4 mph 10.4 mph 75 % 0.00 in 308.0 W/m2 OVC
09:43 29.3 °F 21.7 °F 30.02 in West 17.3 mph 17.3 mph 73 % 0.00 in 318.0 W/m2 OVC
09:48 29.6 °F 22.3 °F 30.02 in West 13.8 mph 13.8 mph 74 % 0.00 in 338.0 W/m2 OVC
09:53 29.7 °F 22.1 °F 30.02 in WSW 9.2 mph 9.2 mph 73 % 0.00 in 299.0 W/m2 OVC
09:58 29.8 °F 22.2 °F 30.02 in WSW 12.7 mph 12.7 mph 73 % 0.00 in 396.0 W/m2 OVC
10:03 29.9 °F 22.0 °F 30.02 in WSW 9.2 mph 9.2 mph 72 % 0.00 in 250.0 W/m2 SCT
10:08 29.7 °F 22.1 °F 30.02 in WSW 13.8 mph 13.8 mph 73 % 0.00 in 234.0 W/m2 SCT
10:13 29.7 °F 22.1 °F 30.02 in WSW 9.0 mph 9.0 mph 73 % 0.00 in 230.0 W/m2 SCT
10:18 30.1 °F 22.5 °F 30.02 in WSW 13.8 mph 13.8 mph 73 % 0.00 in 197.0 W/m2 SCT
10:23 30.3 °F 22.7 °F 30.02 in West 9.2 mph 9.2 mph 73 % 0.00 in 181.0 W/m2 SCT
10:28 30.6 °F 22.6 °F 30.02 in West 12.7 mph 12.7 mph 72 % 0.00 in 193.0 W/m2 SCT
10:33 30.9 °F 22.9 °F 30.01 in WSW 13.0 mph 13.0 mph 72 % 0.00 in 234.0 W/m2 SCT
10:39 32.6 °F 24.9 °F 30.01 in West 14.0 mph 14.0 mph 73 % 0.00 in 559.0 W/m2 SCT
10:44 32.4 °F 23.4 °F 30.01 in West 19.6 mph 19.6 mph 69 % 0.00 in 213.0 W/m2 SCT
10:49 32.1 °F 23.4 °F 30.01 in West 16.1 mph 16.1 mph 70 % 0.00 in 213.0 W/m2 SCT
10:54 32.0 °F 23.3 °F 30.01 in WSW 12.7 mph 12.7 mph 70 % 0.00 in 174.0 W/m2 SCT
10:59 31.8 °F 23.1 °F 30.01 in WSW 21.0 mph 21.0 mph 70 % 0.00 in 132.0 W/m2 SCT
11:04 31.6 °F 23.3 °F 30.01 in WSW 16.1 mph 16.1 mph 71 % 0.00 in 95.0 W/m2 BKN
11:09 31.5 °F 23.5 °F 30.00 in West 7.0 mph 7.0 mph 72 % 0.00 in 93.0 W/m2 BKN
11:14 31.4 °F 23.7 °F 30.00 in WSW 10.4 mph 10.4 mph 73 % 0.00 in 81.0 W/m2 BKN
11:19 31.2 °F 23.9 °F 30.00 in WSW 15.0 mph 15.0 mph 74 % 0.00 in 97.0 W/m2 BKN
11:24 31.2 °F 24.2 °F 30.00 in WSW 17.0 mph 17.0 mph 75 % 0.00 in 88.0 W/m2 BKN
11:29 31.2 °F 24.5 °F 30.00 in West 12.7 mph 12.7 mph 76 % 0.00 in 86.0 W/m2 BKN
11:34 31.0 °F 24.6 °F 30.00 in WSW 13.8 mph 13.8 mph 77 % 0.00 in 77.0 W/m2 BKN
11:39 30.9 °F 24.8 °F 30.00 in WSW 14.0 mph 14.0 mph 78 % 0.00 in 70.0 W/m2 BKN
11:44 30.8 °F 24.7 °F 29.99 in WSW 12.7 mph 12.7 mph 78 % 0.00 in 86.0 W/m2 BKN
11:49 30.8 °F 24.7 °F 29.99 in WSW 9.2 mph 9.2 mph 78 % 0.00 in 109.0 W/m2 BKN
11:54 30.8 °F 24.7 °F 29.98 in WSW 16.1 mph 16.1 mph 78 % 0.00 in 130.0 W/m2 -SN
11:59 31.0 °F 24.9 °F 29.98 in WSW 13.0 mph 13.0 mph 78 % 0.00 in 118.0 W/m2 -SN
12:04 31.0 °F 24.6 °F 29.98 in WSW 15.0 mph 15.0 mph 77 % 0.00 in 109.0 W/m2 -SN
12:06 31.0 °F 24.6 °F 29.98 in West 12.7 mph 12.7 mph 77 % 0.00 in 104.0 W/m2 -SN
12:11 31.0 °F 24.6 °F 29.98 in WSW 13.8 mph 13.8 mph 77 % 0.00 in 97.0 W/m2 -SN
12:16 31.0 °F 24.6 °F 29.98 in WSW 15.0 mph 15.0 mph 77 % 0.00 in 90.0 W/m2 -SN
12:26 31.2 °F 24.5 °F 29.97 in WSW 18.4 mph 18.4 mph 76 % 0.00 in 128.0 W/m2 -SN
12:31 31.4 °F 25.0 °F 29.97 in WSW 11.5 mph 11.5 mph 77 % 0.00 in 144.0 W/m2 -SN
12:36 31.6 °F 24.9 °F 29.96 in SW 11.5 mph 11.5 mph 76 % 0.00 in 151.0 W/m2 -SN
12:42 31.8 °F 24.8 °F 29.96 in WSW 13.0 mph 13.0 mph 75 % 0.00 in 155.0 W/m2 -SN
12:47 32.0 °F 24.6 °F 29.95 in SW 16.1 mph 16.1 mph 74 % 0.00 in 149.0 W/m2 -SN
12:52 32.2 °F 24.8 °F 29.95 in SW 17.3 mph 17.3 mph 74 % 0.00 in 142.0 W/m2 -SN
12:57 32.3 °F 24.6 °F 29.95 in WSW 15.0 mph 15.0 mph 73 % 0.00 in 142.0 W/m2 -SN
13:02 32.5 °F 24.8 °F 29.95 in WSW 9.0 mph 9.0 mph 73 % 0.00 in 141.0 W/m2 OVC
13:07 32.7 °F 24.7 °F 29.95 in WSW 8.1 mph 8.1 mph 72 % 0.00 in 125.0 W/m2 OVC
13:12 32.8 °F 24.8 °F 29.95 in WSW 13.8 mph 13.8 mph 72 % 0.00 in 116.0 W/m2 OVC
13:17 33.0 °F 25.0 °F 29.95 in WSW 14.0 mph 14.0 mph 72 % 0.00 in 118.0 W/m2 OVC
13:22 33.0 °F 24.3 °F 29.95 in SW 11.5 mph 11.5 mph 70 % 0.00 in 98.0 W/m2 OVC
13:27 33.1 °F 24.4 °F 29.95 in SW 10.4 mph 10.4 mph 70 % 0.00 in 83.0 W/m2 OVC
13:32 33.2 °F 24.5 °F 29.95 in SW 13.8 mph 13.8 mph 70 % 0.00 in 86.0 W/m2 OVC
13:37 33.3 °F 24.6 °F 29.95 in WSW 16.1 mph 16.1 mph 70 % 0.00 in 77.0 W/m2 OVC
13:42 33.4 °F 24.7 °F 29.95 in WSW 9.2 mph 9.2 mph 70 % 0.00 in 72.0 W/m2 OVC
13:47 33.5 °F 24.8 °F 29.95 in WSW 12.7 mph 12.7 mph 70 % 0.00 in 81.0 W/m2 OVC
13:53 33.7 °F 25.0 °F 29.94 in WSW 11.5 mph 11.5 mph 70 % 0.00 in 109.0 W/m2 OVC
13:58 33.9 °F 24.8 °F 29.94 in WSW 16.1 mph 16.1 mph 69 % 0.00 in 90.0 W/m2 OVC
14:03 34.1 °F 25.3 °F 29.94 in WSW 6.9 mph 6.9 mph 70 % 0.00 in 97.0 W/m2 OVC
14:08 34.2 °F 25.1 °F 29.94 in WSW 11.5 mph 11.5 mph 69 % 0.00 in 91.0 W/m2 OVC
14:13 34.3 °F 25.5 °F 29.94 in WSW 11.5 mph 11.5 mph 70 % 0.00 in 72.0 W/m2 OVC
14:18 34.3 °F 25.5 °F 29.94 in WSW 11.5 mph 11.5 mph 70 % 0.00 in 83.0 W/m2 OVC
14:23 34.4 °F 25.6 °F 29.94 in WSW 9.2 mph 9.2 mph 70 % 0.00 in 86.0 W/m2 OVC
14:28 34.4 °F 25.6 °F 29.94 in WSW 12.0 mph 12.0 mph 70 % 0.00 in 67.0 W/m2 OVC
14:33 34.4 °F 25.6 °F 29.94 in WSW 14.0 mph 14.0 mph 70 % 0.00 in 67.0 W/m2 OVC
14:38 34.5 °F 25.7 °F 29.94 in WSW 16.1 mph 16.1 mph 70 % 0.00 in 70.0 W/m2 OVC
14:43 34.5 °F 25.7 °F 29.94 in WSW 9.2 mph 9.2 mph 70 % 0.00 in 63.0 W/m2 OVC
14:48 34.5 °F 25.7 °F 29.94 in WSW 8.1 mph 8.1 mph 70 % 0.00 in 51.0 W/m2 OVC
14:53 34.6 °F 25.8 °F 29.94 in WSW 14.0 mph 14.0 mph 70 % 0.00 in 46.0 W/m2 OVC
14:58 34.6 °F 25.8 °F 29.94 in WSW 9.2 mph 9.2 mph 70 % 0.00 in 46.0 W/m2 OVC
15:08 34.7 °F 25.9 °F 29.93 in WSW 12.7 mph 12.7 mph 70 % 0.00 in 49.0 W/m2 OVC
15:13 34.8 °F 26.0 °F 29.94 in WSW 10.4 mph 10.4 mph 70 % 0.00 in 47.0 W/m2 OVC
15:19 34.9 °F 26.1 °F 29.94 in WSW 8.1 mph 8.1 mph 70 % 0.00 in 42.0 W/m2 OVC
15:24 35.0 °F 26.2 °F 29.93 in WSW 11.5 mph 11.5 mph 70 % 0.00 in 33.0 W/m2 -RA
15:29 35.0 °F 26.2 °F 29.93 in WSW 12.7 mph 12.7 mph 70 % 0.00 in 28.0 W/m2 -RA
15:34 35.0 °F 26.5 °F 29.93 in WSW 11.5 mph 11.5 mph 71 % 0.00 in 32.0 W/m2 -RA
15:39 35.1 °F 26.6 °F 29.93 in WSW 9.2 mph 9.2 mph 71 % 0.00 in 32.0 W/m2 -RA
15:44 35.1 °F 26.6 °F 29.93 in WSW 9.2 mph 9.2 mph 71 % 0.00 in 26.0 W/m2 -RA
15:49 35.1 °F 26.3 °F 29.93 in WSW 10.4 mph 10.4 mph 70 % 0.00 in 18.0 W/m2 -RA
15:54 35.2 °F 26.7 °F 29.93 in WSW 9.2 mph 9.2 mph 71 % 0.00 in 16.0 W/m2 -RA
15:59 35.2 °F 26.4 °F 29.93 in WSW 8.1 mph 8.1 mph 70 % 0.00 in 14.0 W/m2 -RA
16:04 35.2 °F 26.4 °F 29.93 in WSW 5.8 mph 5.8 mph 70 % 0.00 in 11.0 W/m2 OVC
16:09 35.2 °F 26.4 °F 29.93 in WSW 8.1 mph 8.1 mph 70 % 0.00 in 9.0 W/m2 OVC
16:14 35.2 °F 26.4 °F 29.93 in Calm     70 % 0.00 in 7.0 W/m2 OVC
16:20 35.1 °F 26.6 °F 29.93 in Calm     71 % 0.00 in 0.0 W/m2 OVC
16:21 35.1 °F 26.6 °F 29.93 in Calm     71 % 0.00 in 0.0 W/m2 OVC
16:31 34.9 °F 26.4 °F 29.93 in Calm     71 % 0.00 in 0.0 W/m2 OVC
16:34 34.9 °F 26.4 °F 29.93 in Calm     71 % 0.00 in 0.0 W/m2 OVC
16:39 34.8 °F 26.4 °F 29.93 in Calm     71 % 0.00 in 0.0 W/m2 OVC
16:40 34.8 °F 26.4 °F 29.93 in Calm     71 % 0.00 in 0.0 W/m2 OVC
16:45 34.8 °F 26.4 °F 29.92 in Calm     71 % 0.00 in 0.0 W/m2 OVC
16:47 34.8 °F 26.4 °F 29.93 in Calm     71 % 0.00 in 0.0 W/m2 OVC
16:52 34.7 °F 26.3 °F 29.93 in Calm     71 % 0.00 in 0.0 W/m2 OVC
16:53 34.8 °F 26.4 °F 29.93 in Calm     71 % 0.00 in 0.0 W/m2 OVC
16:58 34.7 °F 26.3 °F 29.93 in Calm     71 % 0.00 in 0.0 W/m2 OVC
17:00 34.7 °F 26.3 °F 29.93 in Calm     71 % 0.00 in 0.0 W/m2 OVC
17:05 34.7 °F 26.3 °F 29.93 in Calm     71 % 0.00 in 0.0 W/m2 OVC
17:08 34.7 °F 26.3 °F 29.93 in Calm     71 % 0.00 in 0.0 W/m2 OVC
17:09 34.7 °F 26.3 °F 29.93 in Calm     71 % 0.00 in 0.0 W/m2 OVC
17:13 34.7 °F 26.3 °F 29.93 in Calm     71 % 0.00 in 0.0 W/m2 OVC
17:17 34.7 °F 26.3 °F 29.93 in Calm     71 % 0.00 in 0.0 W/m2 OVC
17:22 34.7 °F 26.3 °F 29.92 in SW 6.9 mph 6.9 mph 71 % 0.00 in 0.0 W/m2 OVC
17:23 34.7 °F 26.3 °F 29.92 in SW 1.2 mph   71 % 0.00 in 0.0 W/m2 OVC
17:27 34.7 °F 26.3 °F 29.92 in Calm     71 % 0.00 in 0.0 W/m2 OVC
17:29 34.7 °F 26.3 °F 29.92 in Calm     71 % 0.00 in 0.0 W/m2 OVC
17:34 34.7 °F 26.3 °F 29.92 in Calm     71 % 0.00 in 0.0 W/m2 OVC
17:36 34.7 °F 26.3 °F 29.92 in Calm     71 % 0.00 in 0.0 W/m2 OVC
17:37 34.6 °F 26.2 °F 29.92 in Calm     71 % 0.00 in 0.0 W/m2 OVC
17:42 34.6 °F 26.5 °F 29.93 in Calm     72 % 0.00 in 0.0 W/m2 OVC
17:47 34.6 °F 26.2 °F 29.93 in Calm     71 % 0.00 in 0.0 W/m2 OVC
17:50 34.5 °F 26.1 °F 29.92 in Calm     71 % 0.00 in 0.0 W/m2 OVC
17:51 34.5 °F 26.1 °F 29.92 in Calm     71 % 0.00 in 0.0 W/m2 OVC
17:56 34.3 °F 26.2 °F 29.92 in Calm     72 % 0.00 in 0.0 W/m2 OVC
18:01 34.3 °F 26.2 °F 29.92 in SSW 1.0 mph 1.0 mph 72 % 0.00 in 0.0 W/m2 OVC
18:06 34.3 °F 26.2 °F 29.92 in Calm     72 % 0.00 in 0.0 W/m2 OVC
18:10 34.4 °F 26.3 °F 29.92 in Calm     72 % 0.00 in 0.0 W/m2 OVC
18:15 34.4 °F 26.3 °F 29.92 in Calm     72 % 0.00 in 0.0 W/m2 OVC
18:16 34.3 °F 26.2 °F 29.92 in Calm     72 % 0.00 in 0.0 W/m2 OVC
18:21 34.3 °F 25.9 °F 29.92 in SSW 1.2 mph 1.2 mph 71 % 0.00 in 0.0 W/m2 OVC
18:22 34.2 °F 25.8 °F 29.92 in SSW 1.2 mph 1.2 mph 71 % 0.00 in 0.0 W/m2 OVC
18:27 34.1 °F 25.7 °F 29.92 in Calm     71 % 0.00 in 0.0 W/m2 OVC
18:29 34.1 °F 25.7 °F 29.92 in Calm     71 % 0.00 in 0.0 W/m2 OVC
18:33 34.1 °F 25.7 °F 29.92 in SSW 2.3 mph 2.3 mph 71 % 0.00 in 0.0 W/m2 OVC
18:37 34.1 °F 25.7 °F 29.92 in SSW 1.2 mph 1.2 mph 71 % 0.00 in 0.0 W/m2 OVC
18:39 34.1 °F 25.7 °F 29.92 in SSW 3.5 mph 3.5 mph 71 % 0.00 in 0.0 W/m2 OVC
18:43 34.1 °F 25.7 °F 29.92 in SSW 1.2 mph 1.2 mph 71 % 0.00 in 0.0 W/m2 OVC
18:49 34.2 °F 25.8 °F 29.92 in Calm   1.3 mph 71 % 0.00 in 0.0 W/m2 OVC
18:54 34.3 °F 25.5 °F 29.92 in SSW 1.2 mph 1.2 mph 70 % 0.00 in 0.0 W/m2 OVC
18:56 34.3 °F 25.5 °F 29.92 in SSW 3.5 mph 3.5 mph 70 % 0.00 in 0.0 W/m2 OVC
19:01 34.4 °F 25.6 °F 29.92 in SW 5.8 mph 5.8 mph 70 % 0.00 in 0.0 W/m2 OVC
19:06 34.4 °F 25.6 °F 29.92 in SSW 5.8 mph 5.8 mph 70 % 0.00 in 0.0 W/m2 OVC
19:07 34.3 °F 25.5 °F 29.92 in SSW 3.5 mph 3.5 mph 70 % 0.00 in 0.0 W/m2 OVC
19:10 34.3 °F 25.2 °F 29.92 in SSW 7.0 mph 7.0 mph 69 % 0.00 in 0.0 W/m2 OVC
19:15 34.4 °F 25.3 °F 29.92 in SW 11.5 mph 11.5 mph 69 % 0.00 in 0.0 W/m2 OVC
19:19 34.4 °F 25.3 °F 29.92 in SSW 9.2 mph 9.2 mph 69 % 0.00 in 0.0 W/m2 OVC
19:22 34.4 °F 24.9 °F 29.92 in SSW 11.5 mph 11.5 mph 68 % 0.00 in 0.0 W/m2 OVC
19:27 34.2 °F 24.7 °F 29.92 in SSW 10.4 mph 10.4 mph 68 % 0.00 in 0.0 W/m2 OVC
19:29 34.2 °F 24.7 °F 29.92 in SSW 8.1 mph 8.1 mph 68 % 0.00 in 0.0 W/m2 OVC
19:34 34.0 °F 24.5 °F 29.92 in SSW 9.2 mph 9.2 mph 68 % 0.00 in 0.0 W/m2 OVC
19:37 33.8 °F 24.7 °F 29.92 in SSW 7.0 mph 7.0 mph 69 % 0.00 in 0.0 W/m2 OVC
19:42 33.7 °F 24.6 °F 29.92 in SW 8.0 mph 8.0 mph 69 % 0.00 in 0.0 W/m2 OVC
19:43 33.6 °F 24.5 °F 29.92 in SW 8.1 mph 8.1 mph 69 % 0.00 in 0.0 W/m2 OVC
19:48 33.4 °F 24.3 °F 29.92 in SW 10.4 mph 10.4 mph 69 % 0.00 in 0.0 W/m2 OVC
19:49 33.4 °F 24.3 °F 29.92 in SW 5.8 mph 5.8 mph 69 % 0.00 in 0.0 W/m2 OVC
19:54 33.3 °F 24.2 °F 29.92 in SSW 6.0 mph 6.0 mph 69 % 0.00 in 0.0 W/m2 OVC
19:57 33.3 °F 24.2 °F 29.92 in SSW 6.0 mph 6.0 mph 69 % 0.00 in 0.0 W/m2 OVC
20:02 33.3 °F 24.2 °F 29.92 in SSW 6.9 mph 6.9 mph 69 % 0.00 in 0.0 W/m2 BKN
20:07 33.4 °F 24.3 °F 29.92 in SSW 5.8 mph 5.8 mph 69 % 0.00 in 0.0 W/m2 BKN
20:10 33.4 °F 24.3 °F 29.92 in SSW 5.8 mph 5.8 mph 69 % 0.00 in 0.0 W/m2 BKN
20:14 33.4 °F 24.3 °F 29.92 in SSW 11.5 mph 11.5 mph 69 % 0.00 in 0.0 W/m2 BKN
20:17 33.5 °F 24.4 °F 29.92 in SSW 5.8 mph 5.8 mph 69 % 0.00 in 0.0 W/m2 BKN
20:21 33.5 °F 24.4 °F 29.92 in SSW 3.5 mph 3.5 mph 69 % 0.00 in 0.0 W/m2 BKN
20:26 33.6 °F 24.5 °F 29.92 in SSW 5.0 mph 5.0 mph 69 % 0.00 in 0.0 W/m2 BKN
20:31 33.6 °F 24.5 °F 29.92 in SSW 4.6 mph 4.6 mph 69 % 0.00 in 0.0 W/m2 BKN
20:36 33.8 °F 24.7 °F 29.92 in SSW 8.1 mph 8.1 mph 69 % 0.00 in 0.0 W/m2 BKN
20:41 33.9 °F 24.4 °F 29.91 in SSW 11.5 mph 11.5 mph 68 % 0.00 in 0.0 W/m2 BKN
20:42 33.9 °F 24.4 °F 29.91 in SSW 5.8 mph 5.8 mph 68 % 0.00 in 0.0 W/m2 BKN
20:43 34.0 °F 24.5 °F 29.91 in SSW 7.0 mph 7.0 mph 68 % 0.00 in 0.0 W/m2 BKN
20:48 34.1 °F 24.6 °F 29.91 in SSW 10.4 mph 10.4 mph 68 % 0.00 in 0.0 W/m2 BKN
20:49 34.2 °F 24.7 °F 29.91 in SSW 11.5 mph 11.5 mph 68 % 0.00 in 0.0 W/m2 BKN
20:54 34.2 °F 24.4 °F 29.91 in SSW 4.6 mph 4.6 mph 67 % 0.00 in 0.0 W/m2 BKN
20:56 34.3 °F 24.5 °F 29.91 in SSW 8.1 mph 8.1 mph 67 % 0.00 in 0.0 W/m2 BKN
21:01 34.3 °F 24.5 °F 29.91 in SSW 3.5 mph 3.5 mph 67 % 0.00 in 0.0 W/m2 OVC
21:05 34.3 °F 24.5 °F 29.90 in SSW 3.5 mph 3.5 mph 67 % 0.00 in 0.0 W/m2 OVC
21:10 34.3 °F 24.5 °F 29.90 in SSW 6.9 mph 6.9 mph 67 % 0.00 in 0.0 W/m2 OVC
21:12 34.3 °F 24.5 °F 29.91 in SSW 5.0 mph   67 % 0.00 in 0.0 W/m2 OVC
21:16 34.4 °F 24.6 °F 29.91 in SSW 10.4 mph 10.4 mph 67 % 0.00 in 0.0 W/m2 OVC
21:19 34.5 °F 24.7 °F 29.90 in SSW 6.9 mph 6.9 mph 67 % 0.00 in 0.0 W/m2 OVC
21:24 34.5 °F 24.7 °F 29.90 in SSW 13.0 mph 13.0 mph 67 % 0.00 in 0.0 W/m2 OVC
21:25 34.6 °F 24.8 °F 29.91 in SSW 16.0 mph 16.0 mph 67 % 0.00 in 0.0 W/m2 OVC
21:30 34.7 °F 24.5 °F 29.90 in SSW 11.5 mph 11.5 mph 66 % 0.00 in 0.0 W/m2 OVC
21:35 34.8 °F 24.6 °F 29.90 in SSW 15.0 mph 15.0 mph 66 % 0.00 in 0.0 W/m2 OVC
21:36 34.8 °F 24.6 °F 29.90 in SSW 13.8 mph 13.8 mph 66 % 0.00 in 0.0 W/m2 OVC
21:41 35.0 °F 24.8 °F 29.90 in SSW 14.0 mph 14.0 mph 66 % 0.00 in 0.0 W/m2 OVC
21:44 35.1 °F 24.9 °F 29.90 in SSW 10.4 mph 10.4 mph 66 % 0.00 in 0.0 W/m2 OVC
21:49 35.2 °F 24.6 °F 29.90 in SSW 6.9 mph 6.9 mph 65 % 0.00 in 0.0 W/m2 OVC
21:54 35.4 °F 24.8 °F 29.90 in SSW 11.5 mph 11.5 mph 65 % 0.00 in 0.0 W/m2 OVC
21:59 35.6 °F 25.0 °F 29.90 in SSW 10.4 mph 10.4 mph 65 % 0.00 in 0.0 W/m2 OVC
22:04 35.8 °F 24.8 °F 29.89 in SSW 12.7 mph 12.7 mph 64 % 0.00 in 0.0 W/m2 OVC
22:05 35.9 °F 24.9 °F 29.89 in SSW 9.2 mph 9.2 mph 64 % 0.00 in 0.0 W/m2 OVC
22:10 36.0 °F 25.0 °F 29.89 in SSW 13.8 mph 13.8 mph 64 % 0.00 in 0.0 W/m2 OVC
22:11 36.0 °F 25.0 °F 29.89 in SSW 12.7 mph 12.7 mph 64 % 0.00 in 0.0 W/m2 OVC
22:16 36.2 °F 24.8 °F 29.89 in SSW 10.4 mph 10.4 mph 63 % 0.00 in 0.0 W/m2 OVC
22:18 36.2 °F 24.8 °F 29.89 in SSW 12.7 mph 12.7 mph 63 % 0.00 in 0.0 W/m2 OVC
22:19 36.2 °F 24.8 °F 29.90 in SW 12.7 mph 12.7 mph 63 % 0.00 in 0.0 W/m2 OVC
22:24 36.3 °F 24.9 °F 29.90 in SSW 11.5 mph 11.5 mph 63 % 0.00 in 0.0 W/m2 OVC
22:34 36.4 °F 24.6 °F 29.89 in SW 16.1 mph 16.1 mph 62 % 0.00 in 0.0 W/m2 OVC
22:35 36.4 °F 24.6 °F 29.89 in SSW 11.5 mph 11.5 mph 62 % 0.00 in 0.0 W/m2 OVC
22:40 36.5 °F 24.7 °F 29.90 in SSW 11.5 mph 11.5 mph 62 % 0.00 in 0.0 W/m2 OVC
22:41 36.5 °F 24.7 °F 29.90 in SSW 11.5 mph 11.5 mph 62 % 0.00 in 0.0 W/m2 OVC
22:45 36.5 °F 24.7 °F 29.89 in SSW 11.5 mph 11.5 mph 62 % 0.00 in 0.0 W/m2 OVC
22:49 36.5 °F 24.7 °F 29.89 in SSW 7.0 mph 7.0 mph 62 % 0.00 in 0.0 W/m2 OVC
22:54 36.5 °F 24.7 °F 29.89 in SSW 11.5 mph 11.5 mph 62 % 0.00 in 0.0 W/m2 OVC
22:58 36.5 °F 24.7 °F 29.89 in SSW 12.7 mph 12.7 mph 62 % 0.00 in 0.0 W/m2 OVC
23:03 36.5 °F 24.7 °F 29.89 in SSW 11.5 mph 11.5 mph 62 % 0.00 in 0.0 W/m2 OVC
23:07 36.5 °F 25.1 °F 29.89 in SSW 13.8 mph 13.8 mph 63 % 0.00 in 0.0 W/m2 OVC
23:08 36.5 °F 25.1 °F 29.88 in SSW 13.0 mph 13.0 mph 63 % 0.00 in 0.0 W/m2 OVC
Compliments of Weather Underground - 2.5 mb